createdAt,value
2022-11-23T00:00:23.848Z,6.11
2022-11-23T00:01:23.865Z,6.10
2022-11-23T00:02:23.871Z,6.08
2022-11-23T00:03:23.816Z,6.06
2022-11-23T00:04:23.807Z,6.06
2022-11-23T00:05:23.818Z,6.05
2022-11-23T00:06:23.777Z,6.05
2022-11-23T00:07:23.807Z,6.03
2022-11-23T00:08:23.766Z,6.03
2022-11-23T00:09:23.758Z,6.02
2022-11-23T00:10:23.737Z,5.99
2022-11-23T00:11:23.728Z,5.98
2022-11-23T00:12:23.718Z,5.96
2022-11-23T00:13:23.698Z,5.95
2022-11-23T00:14:23.708Z,5.93
2022-11-23T00:15:23.682Z,5.90
2022-11-23T00:16:23.657Z,5.88
2022-11-23T00:17:23.718Z,5.85
2022-11-23T00:18:23.648Z,5.85
2022-11-23T00:19:23.658Z,5.83
2022-11-23T00:20:23.630Z,5.84
2022-11-23T00:21:23.609Z,5.81
2022-11-23T00:22:23.608Z,5.80
2022-11-23T00:23:23.630Z,5.78
2022-11-23T00:24:23.578Z,5.75
2022-11-23T00:25:23.571Z,5.74
2022-11-23T00:26:23.579Z,5.70
2022-11-23T00:27:23.553Z,5.70
2022-11-23T00:28:23.532Z,5.70
2022-11-23T00:29:23.547Z,5.67
2022-11-23T00:30:23.509Z,5.67
2022-11-23T00:31:23.500Z,5.69
2022-11-23T00:32:23.508Z,5.67
2022-11-23T00:33:23.480Z,5.69
2022-11-23T00:34:23.471Z,5.70
2022-11-23T00:35:23.511Z,5.70
2022-11-23T00:36:23.448Z,5.70
2022-11-23T00:37:23.440Z,5.73
2022-11-23T00:38:23.436Z,5.69
2022-11-23T00:39:23.440Z,5.70
2022-11-23T00:40:23.402Z,5.73
2022-11-23T00:41:23.416Z,5.74
2022-11-23T00:42:23.390Z,5.77
2022-11-23T00:43:23.388Z,5.80
2022-11-23T00:44:23.390Z,5.81
2022-11-23T00:45:23.366Z,5.81
2022-11-23T00:46:23.354Z,5.87
2022-11-23T00:47:23.351Z,5.93
2022-11-23T00:48:23.322Z,5.99
2022-11-23T00:49:23.341Z,6.01
2022-11-23T00:50:23.309Z,6.08
2022-11-23T00:51:23.303Z,6.13
2022-11-23T00:52:23.280Z,6.16
2022-11-23T00:53:23.271Z,6.19
2022-11-23T00:54:23.280Z,6.19
2022-11-23T00:55:23.251Z,6.20
2022-11-23T00:56:23.271Z,6.20
2022-11-23T00:57:23.250Z,6.27
2022-11-23T00:58:23.211Z,6.33
2022-11-23T00:59:23.209Z,6.36
2022-11-23T01:00:23.211Z,6.38
2022-11-23T01:01:23.245Z,6.40
2022-11-23T01:02:23.199Z,6.42
2022-11-23T01:03:23.199Z,6.43
2022-11-23T01:04:23.163Z,6.46
2022-11-23T01:05:23.148Z,6.54
2022-11-23T01:06:23.146Z,6.58
2022-11-23T01:07:23.190Z,6.63
2022-11-23T01:08:23.111Z,6.64
2022-11-23T01:09:23.101Z,6.68
2022-11-23T01:10:23.103Z,6.71
2022-11-23T01:11:23.082Z,6.71
2022-11-23T01:12:23.082Z,6.71
2022-11-23T01:13:23.071Z,6.71
2022-11-23T01:14:23.072Z,6.71
2022-11-23T01:15:23.059Z,6.72
2022-11-23T01:16:24.458Z,6.71
2022-11-23T01:17:23.023Z,6.69
2022-11-23T01:18:23.003Z,6.68
2022-11-23T01:19:23.003Z,6.65
2022-11-23T01:20:23.005Z,6.63
2022-11-23T01:21:22.985Z,6.61
2022-11-23T01:22:22.973Z,6.61
2022-11-23T01:23:22.975Z,6.60
2022-11-23T01:24:22.964Z,6.60
2022-11-23T01:25:22.966Z,6.57
2022-11-23T01:26:22.927Z,6.57
2022-11-23T01:27:22.913Z,6.55
2022-11-23T01:28:22.894Z,6.55
2022-11-23T01:29:22.904Z,6.57
2022-11-23T01:30:22.895Z,6.57
2022-11-23T01:31:22.877Z,6.55
2022-11-23T01:32:22.885Z,6.54
2022-11-23T01:33:22.844Z,6.54
2022-11-23T01:34:22.835Z,6.54
2022-11-23T01:35:22.837Z,6.53
2022-11-23T01:36:22.813Z,6.53
2022-11-23T01:37:22.805Z,6.51
2022-11-23T01:38:22.805Z,6.53
2022-11-23T01:39:22.785Z,6.50
2022-11-23T01:40:22.785Z,6.51
2022-11-23T01:41:22.766Z,6.48
2022-11-23T01:42:22.747Z,6.46
2022-11-23T01:43:22.766Z,6.45
2022-11-23T01:44:22.735Z,6.43
2022-11-23T01:45:22.728Z,6.42
2022-11-23T01:46:22.723Z,6.40
2022-11-23T01:47:22.716Z,6.40
2022-11-23T01:48:22.714Z,6.38
2022-11-23T01:49:22.686Z,6.36
2022-11-23T01:50:22.665Z,6.33
2022-11-23T01:51:22.656Z,6.32
2022-11-23T01:52:22.647Z,6.28
2022-11-23T01:53:22.658Z,6.27
2022-11-23T01:54:22.644Z,6.24
2022-11-23T01:55:22.636Z,6.24
2022-11-23T01:56:22.607Z,6.20
2022-11-23T01:57:22.616Z,6.19
2022-11-23T01:58:22.577Z,6.20
2022-11-23T01:59:22.588Z,6.20
2022-11-23T02:00:22.577Z,6.19
2022-11-23T02:01:22.625Z,6.20
2022-11-23T02:02:22.555Z,6.20
2022-11-23T02:03:22.547Z,6.20
2022-11-23T02:04:22.516Z,6.21
2022-11-23T02:05:22.529Z,6.20
2022-11-23T02:06:22.515Z,6.21
2022-11-23T02:07:22.583Z,6.24
2022-11-23T02:08:22.498Z,6.24
2022-11-23T02:09:22.498Z,6.24
2022-11-23T02:10:22.447Z,6.24
2022-11-23T02:11:22.447Z,6.24
2022-11-23T02:12:22.439Z,6.20
2022-11-23T02:13:22.448Z,6.20
2022-11-23T02:14:23.648Z,6.19
2022-11-23T02:15:22.418Z,6.17
2022-11-23T02:16:22.389Z,6.16
2022-11-23T02:17:22.394Z,6.14
2022-11-23T02:18:22.380Z,6.13
2022-11-23T02:19:22.379Z,6.13
2022-11-23T02:20:22.347Z,6.10
2022-11-23T02:21:22.359Z,6.11
2022-11-23T02:22:22.341Z,6.11
2022-11-23T02:23:22.313Z,6.11
2022-11-23T02:24:22.321Z,6.11
2022-11-23T02:25:22.319Z,6.11
2022-11-23T02:26:22.279Z,6.13
2022-11-23T02:27:22.300Z,6.11
2022-11-23T02:28:22.259Z,6.11
2022-11-23T02:29:22.250Z,6.08
2022-11-23T02:30:22.239Z,6.08
2022-11-23T02:31:22.268Z,6.06
2022-11-23T02:32:22.229Z,6.03
2022-11-23T02:33:22.222Z,6.03
2022-11-23T02:34:22.212Z,5.99
2022-11-23T02:35:22.191Z,5.98
2022-11-23T02:36:22.180Z,5.98
2022-11-23T02:37:22.165Z,5.99
2022-11-23T02:38:22.147Z,5.99
2022-11-23T02:39:22.156Z,5.98
2022-11-23T02:40:22.127Z,5.99
2022-11-23T02:41:22.107Z,5.95
2022-11-23T02:42:22.106Z,5.96
2022-11-23T02:43:22.097Z,5.93
2022-11-23T02:44:22.067Z,5.93
2022-11-23T02:45:22.067Z,5.90
2022-11-23T02:46:22.058Z,5.88
2022-11-23T02:47:22.108Z,5.85
2022-11-23T02:48:22.049Z,5.83
2022-11-23T02:49:22.025Z,5.78
2022-11-23T02:50:22.040Z,5.78
2022-11-23T02:51:22.018Z,5.77
2022-11-23T02:52:22.016Z,5.77
2022-11-23T02:53:21.999Z,5.75
2022-11-23T02:54:21.969Z,5.74
2022-11-23T02:55:21.959Z,5.74
2022-11-23T02:56:21.959Z,5.73
2022-11-23T02:57:21.950Z,5.73
2022-11-23T02:58:21.918Z,5.70
2022-11-23T02:59:21.919Z,5.73
2022-11-23T03:00:21.899Z,5.73
2022-11-23T03:01:21.934Z,5.73
2022-11-23T03:02:21.891Z,5.70
2022-11-23T03:03:21.899Z,5.69
2022-11-23T03:04:27.384Z,5.66
2022-11-23T03:05:22.859Z,5.65
2022-11-23T03:06:21.850Z,5.63
2022-11-23T03:07:21.911Z,5.62
2022-11-23T03:08:21.818Z,5.60
2022-11-23T03:09:21.810Z,5.58
2022-11-23T03:10:21.800Z,5.56
2022-11-23T03:11:21.787Z,5.52
2022-11-23T03:12:21.782Z,5.51
2022-11-23T03:13:21.802Z,5.49
2022-11-23T03:14:21.752Z,5.49
2022-11-23T03:15:21.760Z,5.51
2022-11-23T03:16:21.743Z,5.51
2022-11-23T03:17:21.741Z,5.48
2022-11-23T03:18:21.721Z,5.49
2022-11-23T03:19:21.731Z,5.47
2022-11-23T03:20:21.691Z,5.48
2022-11-23T03:21:21.682Z,5.45
2022-11-23T03:22:21.665Z,5.45
2022-11-23T03:23:21.684Z,5.45
2022-11-23T03:24:21.642Z,5.44
2022-11-23T03:25:21.662Z,5.44
2022-11-23T03:26:21.622Z,5.45
2022-11-23T03:27:21.631Z,5.48
2022-11-23T03:28:21.602Z,5.48
2022-11-23T03:29:21.622Z,5.51
2022-11-23T03:30:21.613Z,5.51
2022-11-23T03:31:21.580Z,5.52
2022-11-23T03:32:21.572Z,5.52
2022-11-23T03:33:21.570Z,5.56
2022-11-23T03:34:21.563Z,5.55
2022-11-23T03:35:21.530Z,5.55
2022-11-23T03:36:21.524Z,5.56
2022-11-23T03:37:21.523Z,5.56
2022-11-23T03:38:21.493Z,5.58
2022-11-23T03:39:21.503Z,5.58
2022-11-23T03:40:21.503Z,5.58
2022-11-23T03:41:21.481Z,5.58
2022-11-23T03:42:21.475Z,5.59
2022-11-23T03:43:21.477Z,5.60
2022-11-23T03:44:21.449Z,5.60
2022-11-23T03:45:21.435Z,5.62
2022-11-23T03:46:21.412Z,5.62
2022-11-23T03:47:21.452Z,5.63
2022-11-23T03:48:21.394Z,5.63
2022-11-23T03:49:21.397Z,5.66
2022-11-23T03:50:21.364Z,5.67
2022-11-23T03:51:21.504Z,5.70
2022-11-23T03:52:21.355Z,5.70
2022-11-23T03:53:21.343Z,5.74
2022-11-23T03:54:21.353Z,5.74
2022-11-23T03:55:21.333Z,5.74
2022-11-23T03:56:21.323Z,5.75
2022-11-23T03:57:21.294Z,5.77
2022-11-23T03:58:21.293Z,5.78
2022-11-23T03:59:21.273Z,5.80
2022-11-23T04:00:21.274Z,5.78
2022-11-23T04:01:21.312Z,5.78
2022-11-23T04:02:21.245Z,5.80
2022-11-23T04:03:21.233Z,5.83
2022-11-23T04:04:21.219Z,5.83
2022-11-23T04:05:21.223Z,5.83
2022-11-23T04:06:21.204Z,5.84
2022-11-23T04:07:21.241Z,5.84
2022-11-23T04:08:21.171Z,5.87
2022-11-23T04:09:21.181Z,5.85
2022-11-23T04:10:21.174Z,5.88
2022-11-23T04:11:21.145Z,5.87
2022-11-23T04:12:21.195Z,5.90
2022-11-23T04:13:21.132Z,5.90
2022-11-23T04:14:21.105Z,5.93
2022-11-23T04:15:21.105Z,5.93
2022-11-23T04:16:21.103Z,5.93
2022-11-23T04:17:21.085Z,5.93
2022-11-23T04:18:21.084Z,5.96
2022-11-23T04:19:21.066Z,5.96
2022-11-23T04:20:21.055Z,5.98
2022-11-23T04:21:21.034Z,5.99
2022-11-23T04:22:21.035Z,5.98
2022-11-23T04:23:21.027Z,6.01
2022-11-23T04:24:21.016Z,6.01
2022-11-23T04:25:21.006Z,5.99
2022-11-23T04:26:21.005Z,5.99
2022-11-23T04:27:20.986Z,5.99
2022-11-23T04:28:20.978Z,5.99
2022-11-23T04:29:20.968Z,5.98
2022-11-23T04:30:20.945Z,6.01
2022-11-23T04:31:20.947Z,5.99
2022-11-23T04:32:20.919Z,6.01
2022-11-23T04:33:20.916Z,6.01
2022-11-23T04:34:20.896Z,6.01
2022-11-23T04:35:20.885Z,6.01
2022-11-23T04:36:20.898Z,5.99
2022-11-23T04:37:20.876Z,5.99
2022-11-23T04:38:20.857Z,5.99
2022-11-23T04:39:20.857Z,5.98
2022-11-23T04:40:20.855Z,5.99
2022-11-23T04:41:20.827Z,5.98
2022-11-23T04:42:20.827Z,5.98
2022-11-23T04:43:20.816Z,5.95
2022-11-23T04:44:20.795Z,5.93
2022-11-23T04:45:20.797Z,5.92
2022-11-23T04:46:20.777Z,5.90
2022-11-23T04:47:20.768Z,5.90
2022-11-23T04:48:20.765Z,5.90
2022-11-23T04:49:20.759Z,5.88
2022-11-23T04:50:20.778Z,5.87
2022-11-23T04:51:20.727Z,5.87
2022-11-23T04:52:20.718Z,5.85
2022-11-23T04:53:20.699Z,5.83
2022-11-23T04:54:20.707Z,5.83
2022-11-23T04:55:20.687Z,5.83
2022-11-23T04:56:20.688Z,5.81
2022-11-23T04:57:20.649Z,5.81
2022-11-23T04:58:20.646Z,5.78
2022-11-23T04:59:20.627Z,5.77
2022-11-23T05:00:20.635Z,5.74
2022-11-23T05:01:20.631Z,5.73
2022-11-23T05:02:20.598Z,5.75
2022-11-23T05:03:20.588Z,5.73
2022-11-23T05:04:20.590Z,5.69
2022-11-23T05:05:20.579Z,5.69
2022-11-23T05:06:20.579Z,5.67
2022-11-23T05:07:20.582Z,5.67
2022-11-23T05:08:20.539Z,5.67
2022-11-23T05:09:20.550Z,5.65
2022-11-23T05:10:20.528Z,5.65
2022-11-23T05:11:20.510Z,5.65
2022-11-23T05:12:20.496Z,5.63
2022-11-23T05:13:20.481Z,5.62
2022-11-23T05:14:20.489Z,5.62
2022-11-23T05:15:20.471Z,5.59
2022-11-23T05:16:20.478Z,5.60
2022-11-23T05:17:20.448Z,5.59
2022-11-23T05:18:20.472Z,5.60
2022-11-23T05:19:20.429Z,5.59
2022-11-23T05:20:20.422Z,5.59
2022-11-23T05:21:20.402Z,5.59
2022-11-23T05:22:20.398Z,5.60
2022-11-23T05:23:20.378Z,5.60
2022-11-23T05:24:20.390Z,5.59
2022-11-23T05:25:20.360Z,5.59
2022-11-23T05:26:20.348Z,5.58
2022-11-23T05:27:20.340Z,5.58
2022-11-23T05:28:39.743Z,5.58
2022-11-23T05:29:21.329Z,5.59
2022-11-23T05:30:20.301Z,5.60
2022-11-23T05:31:20.309Z,5.62
2022-11-23T05:32:20.313Z,5.62
2022-11-23T05:33:20.270Z,5.63
2022-11-23T05:34:20.270Z,5.63
2022-11-23T05:35:20.245Z,5.63
2022-11-23T05:36:20.263Z,5.65
2022-11-23T05:37:20.228Z,5.67
2022-11-23T05:38:20.232Z,5.67
2022-11-23T05:39:20.201Z,5.69
2022-11-23T05:40:20.217Z,5.69
2022-11-23T05:41:20.200Z,5.70
2022-11-23T05:42:20.182Z,5.74
2022-11-23T05:43:20.161Z,5.75
2022-11-23T05:44:20.180Z,5.77
2022-11-23T05:45:20.151Z,5.77
2022-11-23T05:46:20.142Z,5.78
2022-11-23T05:47:20.122Z,5.80
2022-11-23T05:48:20.143Z,5.80
2022-11-23T05:49:20.124Z,5.84
2022-11-23T05:50:20.092Z,5.83
2022-11-23T05:51:20.092Z,5.87
2022-11-23T05:52:20.081Z,5.87
2022-11-23T05:53:20.081Z,5.88
2022-11-23T05:54:20.068Z,5.90
2022-11-23T05:55:20.042Z,5.93
2022-11-23T05:56:20.054Z,5.93
2022-11-23T05:57:20.054Z,5.95
2022-11-23T05:58:20.010Z,5.96
2022-11-23T05:59:20.003Z,5.98
2022-11-23T06:00:20.032Z,6.01
2022-11-23T06:01:19.974Z,6.02
2022-11-23T06:02:19.964Z,6.03
2022-11-23T06:03:19.961Z,6.06
2022-11-23T06:04:19.986Z,6.06
2022-11-23T06:05:20.643Z,6.10
2022-11-23T06:06:19.933Z,6.11
2022-11-23T06:07:20.712Z,6.13
2022-11-23T06:08:19.924Z,6.14
2022-11-23T06:09:20.593Z,6.17
2022-11-23T06:10:19.906Z,6.19
2022-11-23T06:11:19.961Z,6.19
2022-11-23T06:12:19.883Z,6.21
2022-11-23T06:13:19.855Z,6.21
2022-11-23T06:14:19.844Z,6.21
2022-11-23T06:15:19.835Z,6.24
2022-11-23T06:16:19.827Z,6.24
2022-11-23T06:17:19.825Z,6.25
2022-11-23T06:18:19.805Z,6.25
2022-11-23T06:19:19.784Z,6.25
2022-11-23T06:20:19.784Z,6.27
2022-11-23T06:21:19.774Z,6.25
2022-11-23T06:22:19.765Z,6.25
2022-11-23T06:23:19.737Z,6.25
2022-11-23T06:24:19.736Z,6.27
2022-11-23T06:25:19.725Z,6.27
2022-11-23T06:26:19.725Z,6.27
2022-11-23T06:27:19.726Z,6.25
2022-11-23T06:28:19.705Z,6.25
2022-11-23T06:29:19.695Z,6.24
2022-11-23T06:30:19.664Z,6.24
2022-11-23T06:31:19.673Z,6.20
2022-11-23T06:32:19.660Z,6.17
2022-11-23T06:33:19.648Z,6.17
2022-11-23T06:34:19.636Z,6.16
2022-11-23T06:35:19.625Z,6.14
2022-11-23T06:36:19.615Z,6.13
2022-11-23T06:37:19.605Z,6.10
2022-11-23T06:38:19.597Z,6.10
2022-11-23T06:39:19.576Z,6.06
2022-11-23T06:40:19.605Z,6.03
2022-11-23T06:41:19.558Z,6.05
2022-11-23T06:43:20.527Z,6.01
2022-11-23T06:44:19.636Z,5.98
2022-11-23T06:45:19.510Z,5.98
2022-11-23T06:46:19.498Z,5.96
2022-11-23T06:47:24.560Z,5.96
2022-11-23T06:48:20.476Z,5.96
2022-11-23T06:49:19.496Z,5.95
2022-11-23T06:50:19.457Z,5.93
2022-11-23T06:51:19.438Z,5.93
2022-11-23T06:52:19.447Z,5.92
2022-11-23T06:53:19.424Z,5.92
2022-11-23T06:54:21.246Z,5.90
2022-11-23T06:55:20.414Z,5.92
2022-11-23T06:56:19.397Z,5.88
2022-11-23T06:57:19.388Z,5.87
2022-11-23T06:58:19.399Z,5.87
2022-11-23T06:59:19.358Z,5.88
2022-11-23T07:00:19.348Z,5.90
2022-11-23T07:01:19.397Z,5.90
2022-11-23T07:02:19.341Z,5.92
2022-11-23T07:03:19.346Z,5.92
2022-11-23T07:04:19.309Z,5.95
2022-11-23T07:05:19.309Z,5.93
2022-11-23T07:06:19.315Z,5.95
2022-11-23T07:07:19.321Z,5.96
2022-11-23T07:08:19.290Z,5.96
2022-11-23T07:09:19.260Z,5.96
2022-11-23T07:10:19.269Z,5.96
2022-11-23T07:11:19.244Z,5.96
2022-11-23T07:12:19.239Z,5.96
2022-11-23T07:13:19.209Z,5.96
2022-11-23T07:14:19.221Z,5.95
2022-11-23T07:15:19.199Z,5.95
2022-11-23T07:16:19.189Z,5.96
2022-11-23T07:17:19.190Z,5.96
2022-11-23T07:18:19.179Z,5.95
2022-11-23T07:19:19.150Z,5.95
2022-11-23T07:20:19.169Z,5.93
2022-11-23T07:21:19.120Z,5.93
2022-11-23T07:22:19.129Z,5.92
2022-11-23T07:23:19.132Z,5.90
2022-11-23T07:24:19.110Z,5.92
2022-11-23T07:25:19.139Z,5.90
2022-11-23T07:26:19.108Z,5.90
2022-11-23T07:27:19.072Z,5.90
2022-11-23T07:28:19.068Z,5.90
2022-11-23T07:29:19.052Z,5.88
2022-11-23T07:30:19.053Z,5.87
2022-11-23T07:31:19.020Z,5.87
2022-11-23T07:32:19.022Z,5.87
2022-11-23T07:33:19.111Z,5.85
2022-11-23T07:34:19.010Z,5.87
2022-11-23T07:35:18.983Z,5.85
2022-11-23T07:36:18.971Z,5.85
2022-11-23T07:37:18.975Z,5.85
2022-11-23T07:38:18.963Z,5.84
2022-11-23T07:39:18.931Z,5.81
2022-11-23T07:40:18.930Z,5.83
2022-11-23T07:41:18.946Z,5.81
2022-11-23T07:42:39.793Z,5.83
2022-11-23T07:43:19.911Z,5.83
2022-11-23T07:44:18.892Z,5.83
2022-11-23T07:45:18.870Z,5.81
2022-11-23T07:46:18.881Z,5.83
2022-11-23T07:47:18.862Z,5.83
2022-11-23T07:48:18.862Z,5.83
2022-11-23T07:49:18.822Z,5.83
2022-11-23T07:50:18.821Z,5.83
2022-11-23T07:51:18.802Z,5.84
2022-11-23T07:52:18.832Z,5.87
2022-11-23T07:53:18.782Z,5.87
2022-11-23T07:54:23.541Z,5.88
2022-11-23T07:55:19.772Z,5.90
2022-11-23T07:56:18.753Z,5.90
2022-11-23T07:57:18.741Z,5.88
2022-11-23T07:58:18.732Z,5.88
2022-11-23T07:59:18.733Z,5.88
2022-11-23T08:00:18.713Z,5.90
2022-11-23T08:01:18.712Z,5.92
2022-11-23T08:02:18.733Z,5.93
2022-11-23T08:03:34.137Z,5.96
2022-11-23T08:04:19.663Z,5.98
2022-11-23T08:05:18.663Z,6.01
2022-11-23T08:06:18.664Z,6.03
2022-11-23T08:07:18.684Z,6.03
2022-11-23T08:08:18.643Z,6.06
2022-11-23T08:09:18.624Z,6.08
2022-11-23T08:10:18.625Z,6.11
2022-11-23T08:11:18.585Z,6.11
2022-11-23T08:12:18.606Z,6.13
2022-11-23T08:13:18.574Z,6.16
2022-11-23T08:14:18.575Z,6.16
2022-11-23T08:15:18.569Z,6.19
2022-11-23T08:16:18.576Z,6.20
2022-11-23T08:17:18.545Z,6.21
2022-11-23T08:18:18.551Z,6.25
2022-11-23T08:19:18.556Z,6.27
2022-11-23T08:20:18.534Z,6.30
2022-11-23T08:21:18.493Z,6.32
2022-11-23T08:22:18.487Z,6.35
2022-11-23T08:23:18.496Z,6.35
2022-11-23T08:24:18.454Z,6.36
2022-11-23T08:25:18.475Z,6.38
2022-11-23T08:26:18.435Z,6.42
2022-11-23T08:27:18.457Z,6.43
2022-11-23T08:28:18.426Z,6.46
2022-11-23T08:29:18.397Z,6.45
2022-11-23T08:30:18.411Z,6.48
2022-11-23T08:31:18.384Z,6.48
2022-11-23T08:32:18.365Z,6.48
2022-11-23T08:33:18.396Z,6.48
2022-11-23T08:34:18.355Z,6.51
2022-11-23T08:35:18.336Z,6.51
2022-11-23T08:36:18.336Z,6.54
2022-11-23T08:37:18.326Z,6.51
2022-11-23T08:38:18.316Z,6.53
2022-11-23T08:39:18.296Z,6.51
2022-11-23T08:40:23.568Z,6.53
2022-11-23T08:41:19.276Z,6.54
2022-11-23T08:42:18.277Z,6.54
2022-11-23T08:43:18.259Z,6.57
2022-11-23T08:44:18.257Z,6.57
2022-11-23T08:45:18.247Z,6.58
2022-11-23T08:46:18.248Z,6.60
2022-11-23T08:47:18.227Z,6.61
2022-11-23T08:48:18.206Z,6.63
2022-11-23T08:49:18.207Z,6.63
2022-11-23T08:50:18.189Z,6.64
2022-11-23T08:51:18.187Z,6.65
2022-11-23T08:52:18.166Z,6.69
2022-11-23T08:53:18.148Z,6.68
2022-11-23T08:54:18.179Z,6.71
2022-11-23T08:55:18.161Z,6.73
2022-11-23T08:56:18.128Z,6.75
2022-11-23T08:57:18.137Z,6.72
2022-11-23T08:58:18.089Z,6.75
2022-11-23T08:59:18.099Z,6.76
2022-11-23T09:00:18.089Z,6.76
2022-11-23T09:01:18.133Z,6.76
2022-11-23T09:02:18.059Z,6.78
2022-11-23T09:03:18.058Z,6.78
2022-11-23T09:04:20.849Z,6.79
2022-11-23T09:05:18.038Z,6.81
2022-11-23T09:06:18.031Z,6.82
2022-11-23T09:07:18.046Z,6.83
2022-11-23T09:08:18.019Z,6.87
2022-11-23T09:09:18.010Z,6.89
2022-11-23T09:10:19.222Z,6.89
2022-11-23T09:11:17.970Z,6.90
2022-11-23T09:12:17.945Z,6.90
2022-11-23T09:13:17.971Z,6.93
2022-11-23T09:14:17.949Z,6.91
2022-11-23T09:15:17.918Z,6.94
2022-11-23T09:16:17.916Z,6.96
2022-11-23T09:17:17.900Z,6.96
2022-11-23T09:18:17.920Z,7.01
2022-11-23T09:19:17.870Z,7.05
2022-11-23T09:20:17.880Z,7.08
2022-11-23T09:21:17.878Z,7.11
2022-11-23T09:22:17.837Z,7.11
2022-11-23T09:23:17.863Z,7.14
2022-11-23T09:24:17.869Z,7.14
2022-11-23T09:25:17.814Z,7.16
2022-11-23T09:26:17.812Z,7.18
2022-11-23T09:27:17.802Z,7.19
2022-11-23T09:28:17.811Z,7.21
2022-11-23T09:29:17.770Z,7.23
2022-11-23T09:30:17.851Z,7.23
2022-11-23T09:31:17.760Z,7.24
2022-11-23T09:32:17.753Z,7.27
2022-11-23T09:33:17.731Z,7.27
2022-11-23T09:34:17.731Z,7.27
2022-11-23T09:35:17.711Z,7.29
2022-11-23T09:36:17.691Z,7.30
2022-11-23T09:37:17.723Z,7.32
2022-11-23T09:38:17.701Z,7.34
2022-11-23T09:39:17.668Z,7.36
2022-11-23T09:40:17.652Z,7.37
2022-11-23T09:41:17.663Z,7.39
2022-11-23T09:42:17.657Z,7.39
2022-11-23T09:43:17.622Z,7.41
2022-11-23T09:44:17.602Z,7.44
2022-11-23T09:45:17.633Z,7.44
2022-11-23T09:46:17.584Z,7.44
2022-11-23T09:47:17.582Z,7.47
2022-11-23T09:48:17.564Z,7.48
2022-11-23T09:49:17.564Z,7.48
2022-11-23T09:50:17.612Z,7.48
2022-11-23T09:51:17.585Z,7.52
2022-11-23T09:52:17.546Z,7.55
2022-11-23T09:53:17.514Z,7.63
2022-11-23T09:54:17.614Z,7.63
2022-11-23T09:55:17.513Z,7.69
2022-11-23T09:56:17.492Z,7.71
2022-11-23T09:57:17.513Z,7.74
2022-11-23T09:58:17.485Z,7.76
2022-11-23T09:59:17.464Z,7.79
2022-11-23T10:00:17.475Z,7.82
2022-11-23T10:01:17.497Z,7.84
2022-11-23T10:02:17.415Z,7.85
2022-11-23T10:03:17.424Z,7.88
2022-11-23T10:04:17.405Z,7.89
2022-11-23T10:05:17.406Z,7.91
2022-11-23T10:06:17.436Z,7.92
2022-11-23T10:07:17.442Z,7.92
2022-11-23T10:08:17.375Z,7.94
2022-11-23T10:09:17.355Z,7.99
2022-11-23T10:10:17.346Z,8.00
2022-11-23T10:11:17.327Z,8.03
2022-11-23T10:12:17.312Z,8.03
2022-11-23T10:13:17.336Z,8.04
2022-11-23T10:14:17.317Z,8.09
2022-11-23T10:15:17.326Z,8.12
2022-11-23T10:16:17.397Z,8.14
2022-11-23T10:17:17.270Z,8.20
2022-11-23T10:18:18.197Z,8.22
2022-11-23T10:19:17.246Z,8.25
2022-11-23T10:20:17.225Z,8.28
2022-11-23T10:21:17.237Z,8.31
2022-11-23T10:22:17.204Z,8.32
2022-11-23T10:23:17.237Z,8.37
2022-11-23T10:24:17.186Z,8.39
2022-11-23T10:25:17.208Z,8.43
2022-11-23T10:26:17.159Z,8.46
2022-11-23T10:27:17.156Z,8.49
2022-11-23T10:28:17.160Z,8.52
2022-11-23T10:29:17.149Z,8.54
2022-11-23T10:30:17.197Z,8.58
2022-11-23T10:31:17.121Z,8.61
2022-11-23T10:32:17.110Z,8.64
2022-11-23T10:33:17.108Z,8.68
2022-11-23T10:34:17.079Z,8.70
2022-11-23T10:35:17.080Z,8.73
2022-11-23T10:36:17.069Z,8.76
2022-11-23T10:37:17.067Z,8.79
2022-11-23T10:38:19.427Z,8.82
2022-11-23T10:39:17.069Z,8.83
2022-11-23T10:40:17.100Z,8.88
2022-11-23T10:41:17.007Z,8.88
2022-11-23T10:42:16.989Z,8.91
2022-11-23T10:43:17.009Z,8.94
2022-11-23T10:44:16.999Z,8.96
2022-11-23T10:45:16.965Z,9.00
2022-11-23T10:46:16.948Z,9.04
2022-11-23T10:47:16.940Z,9.06
2022-11-23T10:48:16.967Z,9.12
2022-11-23T10:49:16.947Z,9.15
2022-11-23T10:50:16.949Z,9.20
2022-11-23T10:51:16.914Z,9.23
2022-11-23T10:52:16.890Z,9.30
2022-11-23T10:53:16.899Z,9.31
2022-11-23T10:54:16.900Z,9.34
2022-11-23T10:55:16.870Z,9.38
2022-11-23T10:56:16.851Z,9.44
2022-11-23T10:57:16.861Z,9.48
2022-11-23T10:58:16.820Z,9.53
2022-11-23T10:59:16.819Z,9.58
2022-11-23T11:00:16.915Z,9.62
2022-11-23T11:01:16.849Z,9.67
2022-11-23T11:02:16.812Z,9.70
2022-11-23T11:03:16.792Z,9.75
2022-11-23T11:04:16.764Z,9.80
2022-11-23T11:05:16.785Z,9.85
2022-11-23T11:06:16.831Z,9.89
2022-11-23T11:07:16.758Z,9.92
2022-11-23T11:08:16.744Z,9.95
2022-11-23T11:09:16.722Z,9.99
2022-11-23T11:10:16.721Z,10.04
2022-11-23T11:11:16.719Z,10.07
2022-11-23T11:12:16.682Z,10.13
2022-11-23T11:13:16.682Z,10.17
2022-11-23T11:14:16.693Z,10.20
2022-11-23T11:15:16.664Z,10.25
2022-11-23T11:16:16.642Z,10.29
2022-11-23T11:17:16.630Z,10.34
2022-11-23T11:18:16.624Z,10.39
2022-11-23T11:19:16.614Z,10.47
2022-11-23T11:20:16.593Z,10.52
2022-11-23T11:21:16.591Z,10.58
2022-11-23T11:22:16.581Z,10.65
2022-11-23T11:23:16.584Z,10.75
2022-11-23T11:24:16.555Z,10.84
2022-11-23T11:25:16.554Z,10.94
2022-11-23T11:26:16.536Z,11.08
2022-11-23T11:27:16.515Z,11.27
2022-11-23T11:28:16.515Z,11.45
2022-11-23T11:29:16.526Z,11.67
2022-11-23T11:30:16.496Z,11.88
2022-11-23T11:31:16.475Z,12.15
2022-11-23T11:32:16.474Z,12.49
2022-11-23T11:33:16.504Z,12.92
2022-11-23T11:34:16.475Z,13.46
2022-11-23T11:35:20.880Z,14.01
2022-11-23T11:36:16.415Z,14.57
2022-11-23T11:37:16.416Z,15.25
2022-11-23T11:38:16.406Z,15.92
2022-11-23T11:39:19.196Z,16.63
2022-11-23T11:40:16.396Z,17.39
2022-11-23T11:41:16.386Z,18.17
2022-11-23T11:42:16.357Z,19.12
2022-11-23T11:43:16.355Z,20.05
2022-11-23T11:44:16.347Z,20.82
2022-11-23T11:45:16.328Z,21.45
2022-11-23T11:46:31.628Z,22.17
2022-11-23T11:47:17.306Z,22.82
2022-11-23T11:48:16.311Z,23.50
2022-11-23T11:49:16.280Z,24.00
2022-11-23T11:50:16.289Z,24.45
2022-11-23T11:51:16.289Z,24.80
2022-11-23T11:52:16.280Z,25.31
2022-11-23T11:53:16.250Z,25.82
2022-11-23T11:54:16.261Z,26.24
2022-11-23T11:55:16.234Z,26.60
2022-11-23T11:56:16.210Z,26.93
2022-11-23T11:57:16.211Z,27.27
2022-11-23T11:58:16.199Z,27.65
2022-11-23T11:59:16.190Z,27.98
2022-11-23T12:00:16.161Z,28.09
2022-11-23T12:01:16.153Z,28.35
2022-11-23T12:02:16.171Z,28.48
2022-11-23T12:03:16.240Z,28.54
2022-11-23T12:04:16.113Z,28.74
2022-11-23T12:05:16.125Z,29.00
2022-11-23T12:06:16.105Z,29.14
2022-11-23T12:07:16.110Z,29.25
2022-11-23T12:08:16.118Z,29.25
2022-11-23T12:09:16.067Z,29.32
2022-11-23T12:10:16.078Z,29.49
2022-11-23T12:11:16.055Z,29.70
2022-11-23T12:12:16.026Z,29.62
2022-11-23T12:13:16.057Z,29.64
2022-11-23T12:14:16.017Z,29.48
2022-11-23T12:15:41.486Z,29.58
2022-11-23T12:16:17.017Z,29.66
2022-11-23T12:17:32.382Z,29.69
2022-11-23T12:18:16.975Z,29.66
2022-11-23T12:19:15.981Z,29.81
2022-11-23T12:20:15.979Z,29.89
2022-11-23T12:21:15.999Z,29.86
2022-11-23T12:22:15.965Z,29.84
2022-11-23T12:23:15.930Z,29.63
2022-11-23T12:24:15.932Z,29.58
2022-11-23T12:25:15.919Z,29.67
2022-11-23T12:26:15.901Z,29.66
2022-11-23T12:27:15.892Z,29.66
2022-11-23T12:28:15.871Z,29.71
2022-11-23T12:29:15.853Z,29.84
2022-11-23T12:30:15.873Z,29.79
2022-11-23T12:31:15.853Z,29.79
2022-11-23T12:32:15.823Z,29.81
2022-11-23T12:33:15.877Z,29.88
2022-11-23T12:34:15.835Z,29.91
2022-11-23T12:35:15.815Z,29.99
2022-11-23T12:36:17.836Z,30.06
2022-11-23T12:37:15.795Z,30.16
2022-11-23T12:38:15.766Z,30.15
2022-11-23T12:39:15.755Z,30.25
2022-11-23T12:40:15.742Z,30.30
2022-11-23T12:41:15.741Z,30.34
2022-11-23T12:42:15.749Z,30.22
2022-11-23T12:43:15.710Z,30.23
2022-11-23T12:44:15.699Z,29.95
2022-11-23T12:45:15.702Z,30.01
2022-11-23T12:46:15.691Z,30.16
2022-11-23T12:47:15.674Z,30.29
2022-11-23T12:48:15.681Z,30.32
2022-11-23T12:49:15.648Z,30.29
2022-11-23T12:50:15.653Z,30.49
2022-11-23T12:51:15.633Z,30.11
2022-11-23T12:52:15.622Z,29.91
2022-11-23T12:53:15.656Z,29.81
2022-11-23T12:54:15.640Z,29.94
2022-11-23T12:55:19.673Z,30.23
2022-11-23T12:56:15.591Z,30.48
2022-11-23T12:57:15.575Z,30.64
2022-11-23T12:58:15.585Z,30.72
2022-11-23T12:59:15.586Z,30.34
2022-11-23T13:00:15.537Z,30.46
2022-11-23T13:01:15.579Z,30.25
2022-11-23T13:02:15.585Z,30.37
2022-11-23T13:03:15.528Z,30.08
2022-11-23T13:04:15.499Z,29.91
2022-11-23T13:05:15.479Z,29.99
2022-11-23T13:06:15.503Z,29.78
2022-11-23T13:07:37.515Z,29.33
2022-11-23T13:08:16.514Z,29.48
2022-11-23T13:09:15.460Z,29.76
2022-11-23T13:10:15.451Z,29.95
2022-11-23T13:11:15.442Z,29.48
2022-11-23T13:12:15.412Z,29.58
2022-11-23T13:13:16.192Z,29.73
2022-11-23T13:14:15.413Z,29.82
2022-11-23T13:15:15.417Z,30.07